Time;durP1;ratioP1;P1;durP2;ratioP2;P2;SDS_P1;SDS_P2;PMS_P1;PMS_P2;Temp;Humidity;BMP_temperature;BMP_pressure;BME280_temperature;BME280_humidity;BME280_pressure;Samples;Min_cycle;Max_cycle;Signal;HPM_P1;HPM_P2
2023/01/28 00:00:08;;;;;;;3.45;1.60;;;4.10;93.70;;;;;;6188990;23;20017;-85
2023/01/28 00:02:48;;;;;;;3.97;2.08;;;4.00;93.60;;;;;;6165864;23;20023;-83
2023/01/28 00:05:21;;;;;;;2.67;1.45;;;4.00;93.60;;;;;;6188981;23;20040;-90
2023/01/28 00:07:58;;;;;;;3.15;1.42;;;4.00;93.60;;;;;;6174952;23;20533;-87
2023/01/28 00:10:25;;;;;;;3.20;1.35;;;4.00;93.70;;;;;;6218651;23;20102;-86
2023/01/28 00:12:59;;;;;;;2.72;1.20;;;4.00;93.70;;;;;;6194146;23;20095;-86
2023/01/28 00:15:26;;;;;;;2.63;1.38;;;4.00;93.70;;;;;;6194228;23;20031;-87
2023/01/28 00:17:54;;;;;;;2.47;1.13;;;4.00;93.70;;;;;;6193618;23;20020;-87
2023/01/28 00:20:21;;;;;;;2.50;1.17;;;4.00;93.60;;;;;;6194179;23;20028;-87
2023/01/28 00:22:48;;;;;;;2.05;1.08;;;4.10;93.60;;;;;;6221306;23;20012;-87
2023/01/28 00:25:18;;;;;;;2.65;1.10;;;4.10;93.60;;;;;;6196623;23;20020;-87
2023/01/28 00:27:46;;;;;;;2.85;1.25;;;4.10;93.70;;;;;;6171685;23;20018;-87
2023/01/28 00:30:16;;;;;;;2.25;1.00;;;4.10;93.70;;;;;;6196695;23;20020;-87
2023/01/28 00:32:45;;;;;;;2.15;1.17;;;4.10;93.70;;;;;;6196237;23;20020;-87
2023/01/28 00:35:14;;;;;;;2.50;1.08;;;4.10;93.60;;;;;;6196637;23;20343;-87
2023/01/28 00:37:45;;;;;;;1.92;1.00;;;4.10;93.70;;;;;;6196764;23;20016;-87
2023/01/28 00:40:12;;;;;;;2.85;1.25;;;4.10;93.60;;;;;;6196762;23;20022;-87
2023/01/28 00:42:39;;;;;;;2.33;0.82;;;4.10;93.70;;;;;;6197079;23;20431;-87
2023/01/28 00:45:07;;;;;;;2.60;1.27;;;4.10;93.70;;;;;;6196691;23;20062;-87
2023/01/28 00:47:35;;;;;;;3.00;1.20;;;4.10;93.70;;;;;;6172305;23;20012;-87
2023/01/28 00:50:02;;;;;;;2.95;1.48;;;4.10;93.70;;;;;;6196158;23;20074;-87
2023/01/28 00:52:30;;;;;;;3.25;1.38;;;4.10;93.70;;;;;;6196175;23;20453;-87
2023/01/28 00:54:59;;;;;;;2.95;1.30;;;4.00;93.70;;;;;;6171061;23;20028;-87
2023/01/28 00:57:29;;;;;;;2.75;1.20;;;4.00;93.70;;;;;;6196766;23;20020;-87
2023/01/28 00:59:56;;;;;;;3.08;1.80;;;4.00;93.80;;;;;;6195757;23;20023;-87
2023/01/28 01:02:24;;;;;;;3.08;1.60;;;4.00;93.80;;;;;;6195714;23;20098;-87
2023/01/28 01:04:59;;;;;;;1.95;1.00;;;4.00;93.80;;;;;;6197349;23;20063;-87
2023/01/28 01:07:40;;;;;;;3.72;1.60;;;4.00;93.80;;;;;;6195752;23;20039;-87
2023/01/28 01:10:14;;;;;;;3.30;1.30;;;4.00;93.80;;;;;;6190741;23;20035;-87
2023/01/28 01:12:42;;;;;;;3.40;1.20;;;4.10;93.80;;;;;;6190846;23;20025;-86
2023/01/28 01:15:11;;;;;;;2.95;1.48;;;4.00;93.80;;;;;;6166306;23;20021;-87
2023/01/28 01:17:44;;;;;;;3.50;1.80;;;4.00;93.80;;;;;;6191359;23;20067;-87
2023/01/28 01:20:20;;;;;;;3.30;1.63;;;4.00;93.80;;;;;;6165509;23;20339;-87
2023/01/28 01:22:50;;;;;;;4.13;2.10;;;4.00;93.80;;;;;;6190749;23;20154;-86
2023/01/28 01:25:18;;;;;;;2.88;1.38;;;3.90;93.80;;;;;;6165833;23;20107;-86
2023/01/28 01:27:49;;;;;;;3.17;1.35;;;3.90;93.90;;;;;;6166255;23;20017;-87
2023/01/28 01:30:17;;;;;;;5.90;2.78;;;3.90;93.90;;;;;;6166045;23;20143;-87
2023/01/28 01:32:44;;;;;;;3.72;2.05;;;3.90;93.90;;;;;;6165914;23;20092;-86
2023/01/28 01:35:14;;;;;;;2.90;1.50;;;3.90;93.80;;;;;;6190789;23;20017;-86
2023/01/28 01:38:05;;;;;;;;;;;;;;;;;;;;;
2023/01/28 01:41:05;;;;;;;3.60;1.65;;;3.90;93.80;;;;;;6194774;23;20017;-89
2023/01/28 01:44:29;;;;;;;3.20;1.48;;;3.80;93.80;;;;;;6215961;23;20510;-88
2023/01/28 01:47:33;;;;;;;;;;;;;;;;;;;;;
2023/01/28 01:50:50;;;;;;;2.90;1.20;;;3.80;93.80;;;;;;6043254;23;20543;-88
2023/01/28 01:54:05;;;;;;;3.20;1.38;;;3.90;93.80;;;;;;6039975;23;20113;-88
2023/01/28 01:57:36;;;;;;;;;;;;;;;;;;;;;
2023/01/28 02:04:47;;;;;;;2.13;1.05;;;3.80;93.70;;;;;;6011164;23;20087;-89
2023/01/28 02:08:24;;;;;;;2.92;1.25;;;3.80;93.80;;;;;;5930005;23;20124;-89
2023/01/28 02:11:32;;;;;;;2.05;1.02;;;3.80;93.70;;;;;;6035082;23;20026;-89
2023/01/28 02:14:12;;;;;;;3.17;1.40;;;3.80;93.70;;;;;;6025810;23;20045;-89
2023/01/28 02:17:00;;;;;;;3.40;1.30;;;3.80;93.70;;;;;;6046891;23;20027;-89
2023/01/28 02:19:42;;;;;;;2.60;1.00;;;3.80;93.70;;;;;;6067553;23;20018;-88
2023/01/28 02:22:33;;;;;;;3.45;1.58;;;3.80;93.70;;;;;;6043231;23;20023;-88
2023/01/28 02:25:31;;;;;;;2.35;1.00;;;3.80;93.60;;;;;;6093995;23;20017;-89
2023/01/28 02:28:21;;;;;;;3.13;1.10;;;3.80;93.70;;;;;;6165825;23;20016;-89
2023/01/28 02:30:55;;;;;;;3.28;1.63;;;3.80;93.60;;;;;;6190770;23;20021;-89
2023/01/28 02:33:51;;;;;;;2.47;1.05;;;3.80;93.70;;;;;;6190842;23;20028;-89
2023/01/28 02:36:37;;;;;;;3.20;1.25;;;3.80;93.70;;;;;;6171646;23;20383;-89
2023/01/28 02:39:32;;;;;;;2.58;1.13;;;3.70;93.70;;;;;;6164277;23;20020;-89
2023/01/28 02:42:17;;;;;;;3.50;1.40;;;3.70;93.70;;;;;;6173628;23;20059;-89
2023/01/28 02:44:44;;;;;;;3.63;1.50;;;3.70;93.70;;;;;;6165485;23;20020;-89
2023/01/28 02:50:11;;;;;;;4.30;2.20;;;3.70;93.70;;;;;;6215249;23;20082;-89
2023/01/28 02:55:56;;;;;;;3.88;1.83;;;3.60;93.70;;;;;;6190201;23;20024;-89
2023/01/28 02:58:55;;;;;;;4.35;2.03;;;3.60;93.80;;;;;;6165373;23;20340;-89
2023/01/28 03:01:46;;;;;;;4.75;2.30;;;3.60;93.70;;;;;;6165194;23;20017;-89
2023/01/28 03:04:18;;;;;;;4.00;1.90;;;3.60;93.70;;;;;;6190668;23;20028;-89
2023/01/28 03:06:53;;;;;;;4.53;1.85;;;3.60;94.00;;;;;;6165524;23;20012;-89
2023/01/28 03:09:22;;;;;;;5.57;2.83;;;3.50;93.80;;;;;;6188198;23;20090;-89
2023/01/28 03:36:49;;;;;;;5.22;2.75;;;3.40;93.80;;;;;;6190197;23;20047;-89
2023/01/28 03:39:37;;;;;;;6.53;3.00;;;3.40;93.80;;;;;;6194179;23;20351;-89
2023/01/28 03:42:10;;;;;;;6.07;3.15;;;3.40;93.80;;;;;;6190618;23;20383;-89
2023/01/28 03:45:03;;;;;;;5.70;2.78;;;3.40;93.80;;;;;;6194079;23;20040;-89
2023/01/28 03:47:32;;;;;;;4.80;2.38;;;3.40;93.80;;;;;;6173114;23;20112;-88
2023/01/28 03:50:02;;;;;;;4.65;2.38;;;3.40;93.80;;;;;;6187006;23;20017;-88
2023/01/28 03:52:36;;;;;;;5.28;2.22;;;3.50;93.80;;;;;;6205140;23;20017;-88
2023/01/28 03:55:24;;;;;;;4.97;2.10;;;3.40;93.80;;;;;;6199630;23;20070;-89
2023/01/28 03:57:54;;;;;;;4.03;2.38;;;3.40;93.80;;;;;;6169610;23;20021;-89
2023/01/28 04:00:53;;;;;;;4.45;1.77;;;3.40;93.80;;;;;;6168419;23;20396;-88
2023/01/28 04:03:22;;;;;;;4.20;2.15;;;3.50;93.80;;;;;;6192229;23;20055;-89
2023/01/28 04:06:04;;;;;;;4.63;2.25;;;3.40;93.80;;;;;;6169105;23;20047;-89
2023/01/28 04:08:58;;;;;;;5.78;2.60;;;3.40;93.80;;;;;;6172047;23;20339;-90
2023/01/28 04:11:54;;;;;;;4.35;2.03;;;3.40;93.80;;;;;;6147866;23;20084;-89
2023/01/28 04:14:29;;;;;;;3.75;1.63;;;3.40;93.70;;;;;;6192499;23;20346;-89
2023/01/28 04:17:12;;;;;;;4.28;2.17;;;3.40;93.70;;;;;;6170342;23;20020;-89
2023/01/28 04:19:42;;;;;;;3.97;2.00;;;3.40;93.70;;;;;;6167093;23;20020;-87
2023/01/28 04:22:11;;;;;;;5.50;2.30;;;3.30;93.70;;;;;;6191251;23;20017;-89
2023/01/28 04:24:42;;;;;;;;;;;3.40;93.70;;;;;;6192287;23;20027;-89
2023/01/28 04:27:10;;;;;;;4.28;1.77;;;3.30;93.80;;;;;;6192187;23;19999;-89
2023/01/28 04:29:40;;;;;;;4.38;2.20;;;3.30;93.80;;;;;;6192974;23;20023;-89
2023/01/28 04:32:49;;;;;;;3.78;1.75;;;3.30;93.70;;;;;;6097954;23;20030;-89
2023/01/28 04:35:43;;;;;;;4.15;1.58;;;3.30;93.70;;;;;;6187194;23;20475;-89
2023/01/28 04:38:20;;;;;;;3.33;1.35;;;3.30;93.70;;;;;;6191810;23;20025;-89
2023/01/28 04:41:12;;;;;;;5.20;2.53;;;3.30;93.70;;;;;;6196502;23;20025;-89
2023/01/28 04:43:48;;;;;;;4.85;1.70;;;3.30;93.70;;;;;;6168419;23;20020;-89
2023/01/28 04:46:53;;;;;;;4.95;2.15;;;3.30;93.60;;;;;;6187488;23;20016;-89
2023/01/28 04:49:52;;;;;;;4.70;2.28;;;3.30;93.60;;;;;;6126929;23;20025;-89
2023/01/28 04:52:52;;;;;;;5.47;2.83;;;3.20;93.60;;;;;;6086825;23;20369;-89
2023/01/28 04:55:38;;;;;;;5.38;2.50;;;3.20;93.60;;;;;;6196339;23;20071;-90
2023/01/28 04:58:05;;;;;;;4.40;2.05;;;3.20;93.60;;;;;;6169946;23;20024;-90
2023/01/28 05:00:34;;;;;;;5.25;2.65;;;3.20;93.60;;;;;;6191386;23;20056;-89
2023/01/28 05:03:07;;;;;;;5.28;2.10;;;3.20;93.60;;;;;;6167317;23;20087;-89
2023/01/28 05:05:38;;;;;;;5.22;2.58;;;3.20;93.60;;;;;;6167509;23;20035;-89
2023/01/28 05:08:17;;;;;;;5.93;3.00;;;3.20;93.60;;;;;;6169282;23;20028;-89
2023/01/28 05:10:46;;;;;;;4.68;2.20;;;3.20;93.60;;;;;;6191420;23;20410;-89
2023/01/28 05:13:13;;;;;;;4.30;2.13;;;3.20;93.60;;;;;;6167012;23;20044;-90
2023/01/28 05:15:41;;;;;;;4.60;2.15;;;3.20;93.60;;;;;;6166837;23;20032;-89
2023/01/28 05:18:08;;;;;;;5.07;2.78;;;3.20;93.50;;;;;;6167466;23;20491;-89
2023/01/28 05:20:45;;;;;;;4.85;2.58;;;3.20;93.60;;;;;;6168555;23;20016;-89
2023/01/28 05:23:12;;;;;;;5.90;3.15;;;3.20;93.50;;;;;;6167122;23;20387;-89
2023/01/28 05:25:58;;;;;;;4.95;2.42;;;3.10;93.40;;;;;;6191312;23;20020;-89
2023/01/28 05:28:29;;;;;;;4.45;2.40;;;3.10;93.50;;;;;;6167104;23;20048;-89
2023/01/28 05:31:07;;;;;;;4.28;1.92;;;3.10;93.50;;;;;;6165665;23;20351;-89
2023/01/28 05:33:34;;;;;;;4.45;2.47;;;3.10;93.40;;;;;;6166511;23;20402;-89
2023/01/28 05:36:07;;;;;;;4.13;1.73;;;3.10;93.40;;;;;;6167775;23;20117;-89
2023/01/28 05:38:37;;;;;;;5.32;2.30;;;3.10;93.40;;;;;;6166433;23;20458;-89
2023/01/28 05:41:04;;;;;;;4.60;2.40;;;3.10;93.40;;;;;;6167277;23;20017;-89
2023/01/28 05:43:34;;;;;;;4.45;1.85;;;3.10;93.40;;;;;;6168633;23;20112;-89
2023/01/28 05:46:13;;;;;;;5.07;1.95;;;3.10;93.40;;;;;;6175125;23;20079;-89
2023/01/28 05:49:01;;;;;;;4.95;2.25;;;3.10;93.40;;;;;;6190943;23;20017;-89
2023/01/28 05:52:00;;;;;;;5.07;2.00;;;3.10;93.30;;;;;;6170720;23;20019;-89
2023/01/28 05:54:29;;;;;;;6.00;2.67;;;3.10;93.30;;;;;;6166840;23;20320;-89
2023/01/28 05:56:56;;;;;;;4.47;1.92;;;3.00;93.30;;;;;;6166178;23;20024;-89
2023/01/28 05:59:26;;;;;;;4.53;2.10;;;3.00;93.30;;;;;;6165834;23;20078;-88
2023/01/28 06:01:55;;;;;;;5.40;2.08;;;3.00;93.30;;;;;;6166428;23;20028;-89
2023/01/28 06:04:23;;;;;;;5.28;2.78;;;3.00;93.30;;;;;;6141873;23;20016;-90
2023/01/28 06:06:53;;;;;;;4.72;2.15;;;3.00;93.30;;;;;;6166218;23;20024;-89
2023/01/28 06:09:21;;;;;;;5.18;2.35;;;3.00;93.30;;;;;;6165755;23;20029;-89
2023/01/28 06:11:49;;;;;;;4.20;1.95;;;3.00;93.20;;;;;;6166352;23;20447;-88
2023/01/28 06:14:26;;;;;;;4.97;2.25;;;3.00;93.20;;;;;;6166189;23;20453;-89
2023/01/28 06:17:29;;;;;;;4.88;2.13;;;3.00;93.20;;;;;;6175728;23;20074;-89
2023/01/28 06:20:07;;;;;;;6.45;2.63;;;2.90;93.20;;;;;;6167782;23;20015;-89
2023/01/28 06:22:37;;;;;;;;;;;2.90;93.20;;;;;;6166896;23;20477;-89
2023/01/28 06:25:05;;;;;;;5.78;2.60;;;2.80;93.20;;;;;;6215363;23;20254;-89
2023/01/28 06:27:38;;;;;;;6.47;3.05;;;2.80;93.20;;;;;;6144488;23;20017;-89
2023/01/28 06:30:05;;;;;;;5.10;2.22;;;2.80;93.20;;;;;;6165833;23;20021;-89
2023/01/28 06:32:33;;;;;;;5.05;2.35;;;2.80;93.20;;;;;;6166018;23;20020;-89
2023/01/28 06:35:00;;;;;;;4.65;2.00;;;2.80;93.20;;;;;;6166202;23;20016;-89
2023/01/28 06:37:35;;;;;;;6.03;2.88;;;2.80;93.20;;;;;;6167017;23;20103;-89
2023/01/28 06:40:03;;;;;;;4.88;2.20;;;2.80;93.10;;;;;;6166240;23;20070;-89
2023/01/28 06:42:31;;;;;;;5.45;2.80;;;2.80;93.10;;;;;;6165931;23;20443;-89
2023/01/28 06:45:01;;;;;;;5.68;2.85;;;2.80;93.10;;;;;;6141831;23;20031;-89
2023/01/28 06:47:28;;;;;;;7.13;2.88;;;2.80;93.10;;;;;;6166234;23;20049;-89
2023/01/28 06:50:04;;;;;;;4.00;2.25;;;2.80;93.10;;;;;;6167309;23;20025;-89
2023/01/28 06:52:41;;;;;;;5.00;2.25;;;2.80;93.10;;;;;;6165758;23;20021;-89
2023/01/28 06:55:09;;;;;;;5.07;2.08;;;2.80;93.10;;;;;;6165711;23;20020;-89
2023/01/28 06:57:40;;;;;;;4.07;1.92;;;2.80;93.10;;;;;;6165839;23;20060;-89
2023/01/28 07:00:11;;;;;;;5.50;2.65;;;2.80;93.00;;;;;;6190694;23;20404;-89
2023/01/28 07:02:40;;;;;;;4.65;1.95;;;2.80;93.00;;;;;;6165978;23;20012;-89
2023/01/28 07:05:15;;;;;;;4.60;2.28;;;2.80;93.00;;;;;;6166644;23;20017;-90
2023/01/28 07:07:45;;;;;;;5.45;2.35;;;2.80;93.00;;;;;;6166052;23;20017;-89
2023/01/28 07:10:18;;;;;;;5.05;2.40;;;2.80;93.00;;;;;;6180788;23;20024;-89
2023/01/28 07:12:46;;;;;;;5.78;3.08;;;2.80;93.00;;;;;;6190788;23;20025;-89
2023/01/28 07:15:14;;;;;;;5.07;2.45;;;2.80;93.00;;;;;;6190987;23;20474;-89
2023/01/28 07:17:48;;;;;;;6.15;2.67;;;2.70;93.00;;;;;;6165272;23;20025;-89
2023/01/28 07:20:26;;;;;;;4.63;2.07;;;2.70;93.00;;;;;;6165719;23;20036;-89
2023/01/28 07:22:57;;;;;;;4.33;1.87;;;2.80;93.20;;;;;;6191042;23;20016;-90
2023/01/28 07:25:38;;;;;;;5.90;2.80;;;2.80;93.00;;;;;;6190511;23;20087;-89
2023/01/28 07:28:06;;;;;;;5.20;2.80;;;2.80;92.90;;;;;;6189616;23;20443;-90
2023/01/28 07:30:33;;;;;;;6.60;3.53;;;2.80;92.90;;;;;;6166381;23;20048;-89
2023/01/28 07:33:01;;;;;;;6.90;3.47;;;2.80;92.90;;;;;;6192176;23;20071;-89
2023/01/28 07:35:28;;;;;;;5.43;2.93;;;2.70;92.90;;;;;;6167222;23;20128;-89
2023/01/28 07:37:59;;;;;;;5.63;3.00;;;2.70;92.80;;;;;;6192078;23;20020;-89
2023/01/28 07:40:28;;;;;;;7.65;3.92;;;2.80;92.90;;;;;;6167960;23;20100;-89
2023/01/28 07:42:59;;;;;;;10.13;4.97;;;2.70;92.80;;;;;;6167341;23;20013;-89
2023/01/28 07:45:37;;;;;;;9.10;4.93;;;2.70;92.80;;;;;;6194142;23;20104;-89
2023/01/28 07:48:09;;;;;;;7.57;4.38;;;2.60;92.70;;;;;;6167735;23;20024;-90
2023/01/28 07:50:37;;;;;;;7.45;4.00;;;2.60;92.80;;;;;;6192414;23;20035;-89
2023/01/28 07:53:07;;;;;;;7.22;3.40;;;2.70;92.80;;;;;;6191806;23;20020;-89
2023/01/28 07:55:34;;;;;;;7.03;4.25;;;2.70;92.80;;;;;;6167448;23;20040;-89
2023/01/28 07:58:04;;;;;;;5.18;2.45;;;2.70;92.70;;;;;;6167030;23;20016;-88
2023/01/28 08:00:35;;;;;;;;;;;2.70;92.70;;;;;;6169227;23;20085;-89
2023/01/28 08:03:07;;;;;;;5.38;2.60;;;2.70;92.80;;;;;;6197765;23;19916;-90
2023/01/28 08:05:39;;;;;;;;;;;2.80;92.80;;;;;;6177627;23;20021;-89
2023/01/28 08:08:08;;;;;;;4.40;2.30;;;2.80;92.80;;;;;;6193987;23;19916;-89
2023/01/28 08:10:36;;;;;;;6.85;3.38;;;2.80;92.80;;;;;;6193696;23;20395;-90
2023/01/28 08:13:09;;;;;;;6.13;2.90;;;2.80;92.70;;;;;;6192914;23;20020;-89
2023/01/28 08:15:38;;;;;;;6.10;3.28;;;2.80;92.70;;;;;;6167652;23;20044;-89
2023/01/28 08:18:24;;;;;;;5.63;2.83;;;2.80;92.70;;;;;;6169151;23;20020;-89
2023/01/28 08:21:04;;;;;;;7.05;3.45;;;2.80;92.70;;;;;;6144008;23;20095;-90
2023/01/28 08:23:33;;;;;;;6.78;3.05;;;2.80;92.70;;;;;;6167043;23;20027;-90
2023/01/28 08:26:00;;;;;;;5.72;3.25;;;2.80;92.70;;;;;;6167098;23;20020;-89
2023/01/28 08:28:31;;;;;;;4.45;2.22;;;2.80;92.70;;;;;;6167008;23;20021;-90
2023/01/28 08:31:30;;;;;;;5.05;2.60;;;2.80;92.70;;;;;;6167292;23;20074;-90
2023/01/28 08:35:09;;;;;;;5.28;2.72;;;2.90;92.70;;;;;;6216628;23;20405;-89
2023/01/28 08:38:16;;;;;;;6.47;3.83;;;2.80;92.70;;;;;;6157436;23;20025;-90
2023/01/28 08:40:54;;;;;;;;;;;;;;;;;;;;;
2023/01/28 08:43:26;;;;;;;7.38;4.03;;;2.80;92.60;;;;;;6195407;23;20013;-89
2023/01/28 08:46:12;;;;;;;6.05;3.45;;;2.80;92.60;;;;;;6173705;23;20095;-89
2023/01/28 08:48:39;;;;;;;6.57;3.58;;;2.80;92.60;;;;;;6169557;23;20020;-89
2023/01/28 08:51:07;;;;;;;6.85;3.60;;;2.70;92.60;;;;;;6166933;23;20457;-89
2023/01/28 08:53:34;;;;;;;5.63;2.83;;;2.80;92.60;;;;;;6166747;23;20047;-89
2023/01/28 08:56:07;;;;;;;6.95;3.58;;;2.80;92.60;;;;;;6167260;23;20021;-89
2023/01/28 08:58:40;;;;;;;6.07;2.80;;;2.80;92.60;;;;;;6167186;23;20477;-89
2023/01/28 09:01:11;;;;;;;6.60;3.80;;;2.80;92.60;;;;;;6166356;23;20025;-89
2023/01/28 09:03:39;;;;;;;6.68;3.83;;;2.80;92.60;;;;;;6166127;23;20343;-89
2023/01/28 09:06:11;;;;;;;7.63;4.32;;;2.80;92.60;;;;;;6166397;23;20017;-89
2023/01/28 09:08:38;;;;;;;;;;;2.80;92.60;;;;;;6191943;23;20032;-89
2023/01/28 09:11:06;;;;;;;6.90;3.90;;;2.80;92.60;;;;;;6197163;23;19916;-90
2023/01/28 09:13:36;;;;;;;6.10;3.55;;;2.80;92.60;;;;;;6167333;23;20443;-90
2023/01/28 09:16:16;;;;;;;5.95;3.60;;;2.80;92.60;;;;;;6166902;23;20020;-90
2023/01/28 09:18:43;;;;;;;5.70;3.30;;;2.80;92.50;;;;;;6166676;23;20016;-90
2023/01/28 09:21:11;;;;;;;6.20;3.47;;;2.80;92.50;;;;;;6166240;23;20021;-89
2023/01/28 09:23:38;;;;;;;8.13;4.15;;;2.80;92.40;;;;;;6166435;23;20020;-89
2023/01/28 09:26:07;;;;;;;6.05;3.28;;;2.90;92.40;;;;;;6166466;23;20021;-89
2023/01/28 09:28:40;;;;;;;7.10;3.65;;;2.90;92.40;;;;;;6167593;23;20312;-90
2023/01/28 09:31:11;;;;;;;4.95;2.78;;;2.90;92.40;;;;;;6191307;23;20024;-89
2023/01/28 09:33:39;;;;;;;6.50;3.60;;;2.90;92.40;;;;;;6171951;23;20016;-89
2023/01/28 09:36:27;;;;;;;5.97;3.15;;;3.00;92.30;;;;;;6167354;23;20443;-90
2023/01/28 09:38:58;;;;;;;5.72;3.28;;;3.00;92.30;;;;;;6189810;23;20047;-90
2023/01/28 09:41:52;;;;;;;6.47;4.05;;;3.00;92.30;;;;;;6166168;23;20012;-89
2023/01/28 09:44:48;;;;;;;5.97;3.28;;;3.10;92.30;;;;;;6102436;23;20465;-90
2023/01/28 09:51:01;;;;;;;5.32;3.25;;;3.10;92.20;;;;;;6190811;23;20085;-89
2023/01/28 09:53:44;;;;;;;4.25;2.38;;;3.10;92.30;;;;;;6167341;23;20104;-90
2023/01/28 09:56:34;;;;;;;4.13;2.33;;;3.20;92.20;;;;;;6166983;23;20067;-93
2023/01/28 09:59:23;;;;;;;5.40;2.63;;;3.20;92.20;;;;;;6166916;23;20017;-94
2023/01/28 10:02:02;;;;;;;5.28;2.83;;;3.30;92.20;;;;;;6166862;23;20020;-94
2023/01/28 10:04:46;;;;;;;5.20;2.80;;;3.30;92.20;;;;;;6167024;23;20028;-90
2023/01/28 10:07:27;;;;;;;4.60;2.25;;;3.40;92.10;;;;;;6166509;23;20017;-91
2023/01/28 10:10:23;;;;;;;5.47;3.28;;;3.40;92.00;;;;;;6191197;23;20024;-92
2023/01/28 10:13:06;;;;;;;4.63;2.47;;;3.50;92.00;;;;;;6166319;23;20040;-92
2023/01/28 10:15:45;;;;;;;5.20;2.63;;;3.60;91.90;;;;;;6167092;23;20078;-91
2023/01/28 10:18:15;;;;;;;4.80;2.45;;;3.60;91.90;;;;;;6191122;23;20016;-91
2023/01/28 10:20:53;;;;;;;4.35;2.25;;;3.70;91.80;;;;;;6142997;23;20075;-90
2023/01/28 10:23:34;;;;;;;3.97;1.90;;;3.80;91.70;;;;;;6171952;23;20024;-90
2023/01/28 10:26:19;;;;;;;3.83;1.85;;;3.90;91.70;;;;;;6167413;23;20070;-90
2023/01/28 10:29:01;;;;;;;4.13;1.70;;;4.00;91.60;;;;;;6167141;23;20335;-94
2023/01/28 10:31:58;;;;;;;3.85;2.13;;;4.10;91.60;;;;;;6171232;23;20031;-95
2023/01/28 10:34:37;;;;;;;4.15;1.88;;;4.10;91.50;;;;;;6194106;23;20100;-93
2023/01/28 10:37:06;;;;;;;3.22;1.38;;;4.20;91.50;;;;;;6167598;23;20032;-92
2023/01/28 10:39:37;;;;;;;2.55;1.40;;;4.30;91.50;;;;;;6166660;23;20024;-91
2023/01/28 10:42:29;;;;;;;3.03;1.40;;;4.30;91.50;;;;;;6166024;23;20066;-94
2023/01/28 10:45:21;;;;;;;3.25;1.60;;;4.40;91.40;;;;;;6125302;23;20103;-90
2023/01/28 10:48:13;;;;;;;3.08;1.58;;;4.40;91.40;;;;;;6165983;23;20293;-94
2023/01/28 10:51:00;;;;;;;2.47;0.98;;;4.40;91.40;;;;;;6165876;23;20107;-92
2023/01/28 10:53:34;;;;;;;2.33;1.17;;;4.40;91.30;;;;;;6166907;23;20381;-91
2023/01/28 10:56:26;;;;;;;3.15;1.52;;;4.40;91.40;;;;;;6168002;23;20020;-94
2023/01/28 10:59:18;;;;;;;3.58;1.88;;;4.40;91.30;;;;;;6166810;23;20024;-90
2023/01/28 11:01:58;;;;;;;3.05;1.27;;;4.40;91.30;;;;;;6166030;23;20079;-90
2023/01/28 11:04:34;;;;;;;3.75;1.75;;;4.40;91.40;;;;;;6190525;23;20017;-92
2023/01/28 11:07:15;;;;;;;3.00;1.58;;;4.40;91.30;;;;;;6166299;23;20017;-91
2023/01/28 11:09:48;;;;;;;3.65;1.92;;;4.50;91.30;;;;;;6170760;22;20024;-87
2023/01/28 11:12:24;;;;;;;2.80;1.30;;;4.50;91.20;;;;;;6196454;23;20031;-90
2023/01/28 11:14:59;;;;;;;4.93;2.20;;;4.50;91.20;;;;;;6195338;23;20031;-91
2023/01/28 11:17:34;;;;;;;3.80;1.90;;;4.60;91.20;;;;;;6196332;23;20048;-91
2023/01/28 11:20:12;;;;;;;3.38;1.65;;;4.60;91.20;;;;;;6195812;23;20024;-86
2023/01/28 11:22:44;;;;;;;3.50;1.73;;;4.60;91.10;;;;;;6194989;23;20022;-86
2023/01/28 11:25:19;;;;;;;3.85;2.08;;;4.70;91.10;;;;;;6220710;23;20051;-87
2023/01/28 11:27:48;;;;;;;4.75;2.58;;;4.70;91.00;;;;;;6194596;23;20020;-86
2023/01/28 11:30:29;;;;;;;4.15;2.15;;;4.50;91.10;;;;;;6193974;23;20017;-87
2023/01/28 11:33:16;;;;;;;3.40;1.70;;;4.40;91.10;;;;;;6194720;23;20024;-87
2023/01/28 11:35:53;;;;;;;4.18;1.55;;;4.20;91.30;;;;;;6195367;23;20026;-91
2023/01/28 11:38:23;;;;;;;3.15;1.30;;;4.10;91.50;;;;;;6195143;23;20042;-87
2023/01/28 11:41:02;;;;;;;3.80;1.63;;;4.00;91.60;;;;;;6195082;23;20458;-90
2023/01/28 11:43:31;;;;;;;3.45;1.70;;;3.90;91.70;;;;;;6170993;23;20043;-90
2023/01/28 11:46:31;;;;;;;3.25;1.40;;;3.80;91.70;;;;;;6194747;23;20021;-86
2023/01/28 11:49:29;;;;;;;4.80;2.35;;;3.80;91.80;;;;;;6195469;23;20051;-86
2023/01/28 11:52:21;;;;;;;4.60;2.45;;;3.70;91.80;;;;;;6195214;23;20028;-88
2023/01/28 11:55:09;;;;;;;4.07;2.00;;;3.60;91.80;;;;;;6195797;23;20354;-91
2023/01/28 11:57:44;;;;;;;4.55;2.45;;;3.60;92.20;;;;;;6194541;23;20026;-90
2023/01/28 12:00:51;;;;;;;3.58;1.95;;;3.60;91.90;;;;;;6195220;23;20031;-89
2023/01/28 12:03:22;;;;;;;4.55;2.17;;;3.60;91.80;;;;;;6195436;23;20044;-90
2023/01/28 12:06:16;;;;;;;4.85;2.42;;;3.60;91.90;;;;;;6222639;23;20110;-89
2023/01/28 12:09:00;;;;;;;4.82;2.35;;;3.70;91.80;;;;;;6198695;23;20066;-89
2023/01/28 12:15:17;;;;;;;4.35;2.20;;;3.80;91.70;;;;;;6221961;23;20016;-91
2023/01/28 12:18:05;;;;;;;3.42;1.80;;;4.00;91.50;;;;;;6200859;23;20043;-90
2023/01/28 12:20:37;;;;;;;4.65;2.45;;;4.20;91.40;;;;;;6200022;23;20042;-87
2023/01/28 12:23:04;;;;;;;;;;;4.30;91.20;;;;;;6199308;23;20130;-86
2023/01/28 12:26:01;;;;;;;4.45;1.75;;;4.30;91.30;;;;;;6223074;23;19919;-83
2023/01/28 12:28:51;;;;;;;4.57;1.95;;;4.40;91.20;;;;;;6198990;23;20022;-88
2023/01/28 12:31:56;;;;;;;3.42;1.50;;;4.50;91.10;;;;;;6223855;23;20027;-90
2023/01/28 12:35:10;;;;;;;4.03;1.55;;;4.60;91.10;;;;;;6196151;23;20462;-87
2023/01/28 12:40:56;;;;;;;6.13;3.15;;;4.60;91.10;;;;;;6208779;23;19923;-87
2023/01/28 12:43:32;;;;;;;6.93;3.60;;;4.60;90.90;;;;;;6247200;23;20024;-90
2023/01/28 12:46:58;;;;;;;;;;;;;;;;;;;;;
2023/01/28 12:49:37;;;;;;;5.32;2.80;;;4.80;90.70;;;;;;6226601;23;20047;-89
2023/01/28 12:52:39;;;;;;;5.40;2.63;;;4.80;90.80;;;;;;6199316;23;20024;-88
2023/01/28 12:55:44;;;;;;;4.38;2.05;;;4.80;90.70;;;;;;6234839;23;20048;-83
2023/01/28 12:58:20;;;;;;;3.92;1.85;;;5.00;90.80;;;;;;6220362;23;20085;-80
2023/01/28 13:01:06;;;;;;;3.85;2.00;;;5.10;90.70;;;;;;6194896;23;20024;-83
2023/01/28 13:03:50;;;;;;;4.95;2.30;;;5.20;90.70;;;;;;6194039;23;20043;-84
2023/01/28 13:06:56;;;;;;;4.25;2.28;;;5.30;90.60;;;;;;6246767;23;20042;-82
2023/01/28 13:09:30;;;;;;;4.45;2.17;;;5.30;90.50;;;;;;6225958;23;20020;-86
2023/01/28 13:11:58;;;;;;;3.97;1.85;;;5.20;90.60;;;;;;6194657;23;20035;-84
2023/01/28 13:14:31;;;;;;;3.92;2.20;;;5.20;90.70;;;;;;6195726;23;20365;-85
2023/01/28 13:31:23;;;;;;;;;;;;;;;;;;;;;
2023/01/28 13:35:28;;;;;;;;;;;;;;;;;;;;;
2023/01/28 13:42:31;;;;;;;6.03;2.70;;;4.60;91.10;;;;;;6084984;23;20028;-83
2023/01/28 13:45:29;;;;;;;6.50;3.30;;;4.50;91.10;;;;;;6118603;23;20440;-84
2023/01/28 13:48:31;;;;;;;5.53;2.55;;;4.40;91.00;;;;;;6094664;23;20018;-82
2023/01/28 13:51:26;;;;;;;4.85;2.60;;;4.40;91.10;;;;;;6119045;23;20450;-83
2023/01/28 13:54:29;;;;;;;3.83;1.95;;;4.40;91.20;;;;;;6093860;23;20022;-86
2023/01/28 13:56:59;;;;;;;5.28;2.60;;;4.30;91.30;;;;;;6090882;23;20460;-82
2023/01/28 13:59:37;;;;;;;5.55;2.40;;;4.30;91.20;;;;;;6094460;23;20015;-81
2023/01/28 14:02:32;;;;;;;5.43;2.80;;;4.30;91.30;;;;;;6146226;23;20020;-82
2023/01/28 14:05:11;;;;;;;5.18;2.28;;;4.30;91.20;;;;;;6219621;23;20023;-80
2023/01/28 14:07:56;;;;;;;8.32;4.07;;;4.30;91.30;;;;;;6220567;23;20349;-89
2023/01/28 14:11:00;;;;;;;7.88;4.03;;;4.20;91.10;;;;;;6219225;23;20453;-86
2023/01/28 14:14:30;;;;;;;7.00;3.42;;;4.20;91.10;;;;;;6224058;23;20099;-85
2023/01/28 14:21:20;;;;;;;4.50;2.30;;;4.10;91.20;;;;;;6153371;23;20048;-87
2023/01/28 14:24:14;;;;;;;5.00;2.75;;;4.10;91.30;;;;;;6105431;23;20447;-87
2023/01/28 14:27:37;;;;;;;5.63;2.88;;;4.00;91.40;;;;;;6215784;23;20021;-87
2023/01/28 14:30:39;;;;;;;;;;;;;;;;;;;;;
2023/01/28 14:33:11;;;;;;;4.03;2.00;;;4.00;91.40;;;;;;6218928;23;20050;-87
2023/01/28 14:35:47;;;;;;;3.67;1.50;;;3.90;91.50;;;;;;6195400;23;20020;-88
2023/01/28 14:38:41;;;;;;;4.57;2.10;;;4.00;91.60;;;;;;6194734;23;20026;-88
2023/01/28 14:42:22;;;;;;;4.05;1.65;;;3.90;91.50;;;;;;6220184;23;20450;-88
2023/01/28 14:45:09;;;;;;;2.90;1.48;;;3.90;91.60;;;;;;6222032;23;20399;-89
2023/01/28 14:48:39;;;;;;;;;;;;;;;;;;;;;
2023/01/28 14:56:18;;;;;;;2.90;1.40;;;3.80;91.70;;;;;;6115464;23;20020;-91
2023/01/28 15:00:04;;;;;;;2.70;1.23;;;3.80;91.80;;;;;;6110417;23;20033;-90
2023/01/28 15:02:43;;;;;;;2.67;1.10;;;3.80;91.80;;;;;;6076965;23;20028;-88
2023/01/28 15:05:39;;;;;;;2.85;1.30;;;3.70;91.90;;;;;;6101140;23;20097;-90
2023/01/28 15:09:04;;;;;;;2.97;1.10;;;3.70;91.90;;;;;;6075521;23;20018;-92
2023/01/28 15:12:08;;;;;;;3.05;1.13;;;3.70;91.90;;;;;;6094843;23;20034;-91
2023/01/28 15:19:49;;;;;;;2.17;0.82;;;3.60;91.90;;;;;;6216158;23;20382;-90
2023/01/28 15:27:18;;;;;;;3.97;1.63;;;3.50;92.00;;;;;;6217594;23;20015;-87
2023/01/28 15:29:57;;;;;;;2.95;1.30;;;3.50;92.00;;;;;;6166390;23;20505;-87
2023/01/28 15:33:07;;;;;;;4.03;1.58;;;3.50;92.00;;;;;;6165842;23;20455;-88
2023/01/28 15:36:33;;;;;;;3.60;1.52;;;3.50;92.10;;;;;;6177171;23;20451;-90
2023/01/28 15:39:02;;;;;;;4.15;1.50;;;3.40;92.10;;;;;;6213792;23;20021;-86
2023/01/28 15:41:46;;;;;;;3.78;1.42;;;3.30;92.30;;;;;;6164567;23;20027;-87